• Join FlightAware (Why Join?)
  • Login
  • US Flag 
12:13PM EDT


 

Airport Tracker/Info


-or-


 

Live Flight TrackerFlight Track Log ✈ ASQ4540 ✈ 22-May-2012 ✈ CYYZ - KEWR

Flight Track Log - Related Links

Times and Time Zones

All times are in EDT time to prevent confusion due to time zone crossing. See the ASQ4540 flight status page for this flight to view local times or setup timezone preferences in your user account.

Time Position Orientation Groundspeed Altitude Reporting Facility
EDT Latitude Longitude Course Direction KTS MPH feet Rate Location/Type
02:47PM 43.6833 -79.5333 90° East 190 219 3,300  Level Toronto Center
02:48PM 43.6833 -79.4667 119° Southeast 230 265 5,500 2,400 Climbing Toronto Center
02:49PM 43.6500 -79.3833 125° Southeast 270 311 8,200 2,640 Climbing Toronto Center
02:50PM 43.6000 -79.2833 121° Southeast 280 322 10,800 2,220 Climbing Toronto Center
02:51PM 43.5500 -79.1667 130° Southeast 320 368 12,700 1,860 Climbing Toronto Center
02:52PM 43.5000 -79.0833 121° Southeast 350 403 14,600 1,860 Climbing Toronto Center
02:53PM 43.4500 -78.9667 124° Southeast 360 414 16,500 1,920 Climbing Toronto Center
02:54PM 43.3833 -78.8333 120° Southeast 370 426 18,500 1,920 Climbing Toronto Center
02:55PM 43.3333 -78.7167 115° Southeast 380 437 20,400 1,860 Climbing Toronto Center
02:56PM 43.2869 -78.5811 111° Southeast 372 428 22,600 1,860 Climbing Cleveland Center
02:57PM 43.2492 -78.4483 113° Southeast 397 457 24,500 1,140 Climbing Cleveland Center
02:58PM 43.2047 -78.3019 114° Southeast 405 466 25,000 240 Climbing Cleveland Center
02:59PM 43.1558 -78.1500 114° Southeast 420 483 25,000  Level Cleveland Center
03:00PM 43.1044 -77.9900 115° Southeast 446 513 25,000 60 Level Cleveland Center
03:01PM 43.0483 -77.8244 114° Southeast 462 532 25,200 480 Climbing Cleveland Center
03:02PM 42.9989 -77.6706 112° Southeast 461 531 26,000 720 Climbing Cleveland Center
03:03PM 42.9531 -77.5167 115° Southeast 449 517 26,700 480 Climbing Cleveland Center
03:04PM 42.8989 -77.3578 115° Southeast 449 517 27,000 60 Climbing Cleveland Center
03:06PM 42.7833 -77.0167 112° Southeast 470 541 27,000  Level Toronto Center
03:07PM 42.7283 -76.8303 115° Southeast 463 533 27,000  Level Boston Center
03:08PM 42.6719 -76.6653 119° Southeast 469 540 27,000  Level Boston Center
03:09PM 42.6050 -76.5025 121° Southeast 479 551 27,000  Level Boston Center
03:10PM 42.5372 -76.3517 122° Southeast 479 551 27,000  Level Boston Center
03:11PM 42.4694 -76.2036 122° Southeast 479 551 27,000  Level Boston Center
03:12PM 42.4011 -76.0533 122° Southeast 456 525 27,000 -300 Level Boston Center
03:13PM 42.3308 -75.9003 121° Southeast 474 545 26,500 -840 Descending Boston Center
03:14PM 42.2644 -75.7508 121° Southeast 474 545 25,400 -1,140 Descending Boston Center
03:15PM 42.1981 -75.6014 123° Southeast 469 540 24,300 -1,680 Descending Boston Center
03:16PM 42.1308 -75.4608 122° Southeast 464 534 22,100 -2,220 Descending Boston Center
03:17PM 42.0697 -75.3292 118° Southeast 443 510 19,900 -2,220 Descending Boston Center
03:18PM 42.0167 -75.1928 117° Southeast 425 489 17,700 -1,440 Descending Boston Center
03:19PM 41.9658 -75.0592 115° Southeast 407 468 17,100 -300 Descending Boston Center
03:20PM 41.9167 -74.9206 118° Southeast 402 463 17,100 -60 Level Boston Center
03:21PM 41.8672 -74.7958 86° East 395 455 17,000  Descending Boston Center
03:22PM 41.8742 -74.6650 89° East 351 404 17,100  Climbing Boston Center
03:23PM 41.8764 -74.5425 91° East 340 391 17,100  Level Boston Center
03:24PM 41.8744 -74.4197 143° Southeast 334 384 17,100 -780 Level Boston Center
03:25PM 41.8089 -74.3536 161° South 270 311 15,600 -1,800 Descending Boston Center
03:26PM 41.7264 -74.3150 184° South 300 345 13,500 -2,220 Descending Boston Center
03:27PM 41.6428 -74.3236 192° South 305 351 11,200 -2,640 Descending Boston Center
03:28PM 41.5631 -74.3461 136° Southeast 305 351 8,300 -2,100 Descending Boston Center
03:29PM 41.5142 -74.2836 196° South 260 299 7,100 -420 Descending Boston Center
03:32PM 41.3833 -74.3333 217° Southwest 275 316 7,000 -60 Descending New York TRACON
03:33PM 41.3167 -74.4000 217° Southwest 273 314 7,000  Level New York TRACON
03:34PM 41.2667 -74.4500 201° Southwest 271 312 7,000 -540 Level New York TRACON
03:35PM 41.2000 -74.4833 201° Southwest 274 315 6,000 -540 Descending New York TRACON
03:36PM 41.1333 -74.5167 189° South 258 297 6,000  Level New York TRACON
03:37PM 41.0500 -74.5333 180° South 270 311 6,000  Level New York TRACON
03:38PM 40.9833 -74.5333 191° South 272 313 6,000  Level New York TRACON
03:38PM 40.9167 -74.5500 201° Southwest 272 313 6,000  Level New York TRACON
03:40PM 40.8500 -74.5833 191° South 235 270 6,100  Climbing New York TRACON
03:40PM 40.7833 -74.6000 191° South 242 278 6,000 -540 Descending New York TRACON
03:42PM 40.7167 -74.6167 191° South 241 277 5,100 -480 Descending New York TRACON
03:43PM 40.6500 -74.6333 169° South 239 275 5,000 -60 Descending New York TRACON
03:43PM 40.5833 -74.6167 180° South 235 270 5,000  Level New York TRACON
03:45PM 40.5167 -74.6167 180° South 237 273 5,000  Level New York TRACON
03:46PM 40.4500 -74.6167 169° South 246 283 5,000  Level New York TRACON
03:46PM 40.3833 -74.6000 131° Southeast 245 282 5,000 -300 Level New York TRACON
03:48PM 40.3500 -74.5500 131° Southeast 190 219 4,500 -480 Descending New York TRACON
03:49PM 40.3167 -74.5000 90° East 192 221 4,000 -420 Descending New York TRACON
03:50PM 40.3167 -74.4333 49° Northeast 194 223 3,700 -540 Descending New York TRACON
03:51PM 40.3500 -74.3833 49° Northeast 180 207 3,000 -720 Descending New York TRACON